KAXS

Altus/Quartz Mountain Regional Airport

Altus, Oklahoma, USA
METAR KAXS 170215Z AUTO 18013KT 10SM OVC033 10/01 A2992 RMK AO2 T01040010
Observed Flight Rules
Dec-17 @ 02:15 UTC (16 minutes ago) Visual Flight Rules
Wind Visibility Clouds
180° at 13 knots 10 miles
  • Overcast at 3,300' AGL
Temperatures Readings
Current 10°C / 50°F
Dewpoint 1°C / 34°F
Humidity 54%
Altimeter 29.92" Hg
Pressure 1013 hPa
Elevation 437
METAR KAXS 170215Z AUTO 18013KT 10SM OVC033 10/01 A2992 RMK AO2 T01040010
Observed Flight Rules
Dec-17 @ 02:15 UTC
(16 minutes ago)
VFR
Wind Visibility
180° at 13 knots 10 miles
Clouds
  • Overcast at 3,300' AGL
Temperature Dewpoint
10°C / 50°F 1°C / 34°F
Humidity Altimeter Pressure
54% 29.92" Hg 1013 hPa